createdAt,value
2023-02-03T00:03:05.828Z,90.90
2023-02-03T00:07:12.031Z,91.15
2023-02-03T00:11:13.749Z,91.38
2023-02-03T00:15:15.470Z,91.06
2023-02-03T00:19:17.741Z,91.30
2023-02-03T00:23:20.049Z,91.11
2023-02-03T00:27:21.740Z,91.25
2023-02-03T00:31:25.053Z,90.93
2023-02-03T00:35:26.894Z,90.61
2023-02-03T00:39:28.619Z,90.93
2023-02-03T00:43:31.191Z,90.63
2023-02-03T00:47:32.892Z,90.65
2023-02-03T00:51:34.706Z,90.50
2023-02-03T00:55:36.441Z,90.46
2023-02-03T00:59:39.639Z,90.04
2023-02-03T01:03:41.453Z,90.07
2023-02-03T01:07:44.477Z,90.15
2023-02-03T01:11:46.772Z,89.82
2023-02-03T01:15:49.447Z,89.47
2023-02-03T01:19:52.101Z,89.69
2023-02-03T01:23:54.401Z,89.05
2023-02-03T01:27:56.146Z,88.77
2023-02-03T01:31:59.149Z,88.79
2023-02-03T01:36:01.886Z,88.40
2023-02-03T01:40:05.776Z,88.27
2023-02-03T01:44:33.804Z,88.00
2023-02-03T01:48:35.640Z,87.59
2023-02-03T01:52:40.459Z,87.40
2023-02-03T01:56:46.272Z,87.37
2023-02-03T02:00:49.779Z,87.22
2023-02-03T02:05:02.211Z,86.78
2023-02-03T02:09:04.879Z,86.98
2023-02-03T02:13:07.033Z,86.55
2023-02-03T02:17:24.037Z,86.97
2023-02-03T02:21:31.736Z,86.34
2023-02-03T02:25:58.334Z,86.74
2023-02-03T02:30:18.164Z,86.62
2023-02-03T02:34:42.112Z,86.54
2023-02-03T02:38:45.115Z,86.57
2023-02-03T02:42:54.387Z,86.85
2023-02-03T02:47:05.448Z,86.74
2023-02-03T02:51:09.955Z,87.00
2023-02-03T02:55:18.963Z,86.61
2023-02-03T02:59:20.880Z,87.07
2023-02-03T03:03:24.276Z,86.86
2023-02-03T03:07:28.163Z,86.61
2023-02-03T03:11:36.994Z,86.38
2023-02-03T03:15:41.205Z,86.55
2023-02-03T03:19:48.831Z,86.48
2023-02-03T03:23:52.785Z,86.25
2023-02-03T03:28:00.653Z,86.48
2023-02-03T03:32:03.907Z,86.72
2023-02-03T03:36:19.070Z,86.30
2023-02-03T03:40:27.326Z,86.54
2023-02-03T03:44:39.754Z,86.59
2023-02-03T03:48:53.343Z,86.51
2023-02-03T03:52:56.506Z,86.21
2023-02-03T03:57:02.494Z,86.48
2023-02-03T04:01:07.337Z,86.62
2023-02-03T04:05:11.091Z,86.80
2023-02-03T04:09:12.836Z,86.66
2023-02-03T04:13:16.114Z,86.78
2023-02-03T04:17:20.240Z,87.06
2023-02-03T04:21:22.241Z,87.04
2023-02-03T04:25:25.052Z,86.94
2023-02-03T04:29:26.852Z,87.02
2023-02-03T04:33:28.590Z,87.20
2023-02-03T04:37:30.782Z,87.54
2023-02-03T04:41:32.656Z,87.53
2023-02-03T04:45:34.449Z,87.45
2023-02-03T04:49:36.297Z,87.69
2023-02-03T04:53:37.999Z,87.11
2023-02-03T04:57:39.869Z,87.31
2023-02-03T05:01:41.554Z,86.99
2023-02-03T05:05:43.254Z,87.25
2023-02-03T05:09:45.055Z,87.30
2023-02-03T05:13:47.172Z,87.43
2023-02-03T05:17:48.894Z,87.37
2023-02-03T05:21:51.476Z,87.43
2023-02-03T05:25:53.348Z,87.21
2023-02-03T05:29:55.071Z,87.25
2023-02-03T05:33:56.834Z,87.51
2023-02-03T05:37:59.565Z,87.42
2023-02-03T05:42:03.492Z,87.46
2023-02-03T05:46:07.240Z,87.42
2023-02-03T05:50:09.304Z,88.00
2023-02-03T05:54:11.189Z,87.58
2023-02-03T05:58:12.998Z,87.75
2023-02-03T06:02:14.725Z,88.14
2023-02-03T06:06:17.437Z,87.85
2023-02-03T06:10:19.678Z,88.25
2023-02-03T06:14:21.527Z,88.34
2023-02-03T06:18:23.603Z,88.55
2023-02-03T06:22:25.528Z,88.53
2023-02-03T06:26:27.264Z,88.44
2023-02-03T06:30:29.426Z,88.52
2023-02-03T06:34:32.842Z,89.11
2023-02-03T06:38:34.698Z,88.76
2023-02-03T06:42:36.526Z,88.88
2023-02-03T06:46:38.355Z,88.85
2023-02-03T06:50:40.350Z,89.40
2023-02-03T06:54:42.159Z,89.29
2023-02-03T06:58:44.630Z,89.11
2023-02-03T07:02:46.965Z,89.10
2023-02-03T07:06:48.821Z,89.08
2023-02-03T07:10:54.720Z,89.25
2023-02-03T07:14:56.403Z,89.21
2023-02-03T07:18:58.679Z,89.33
2023-02-03T07:23:00.532Z,88.87
2023-02-03T07:27:04.506Z,89.46
2023-02-03T07:31:08.327Z,89.13
2023-02-03T07:35:10.089Z,89.19
2023-02-03T07:39:11.858Z,89.44
2023-02-03T07:43:13.932Z,89.47
2023-02-03T07:47:15.722Z,89.26
2023-02-03T07:51:17.470Z,89.54
2023-02-03T07:55:19.250Z,89.88
2023-02-03T07:59:21.515Z,89.59
2023-02-03T08:03:23.255Z,89.32
2023-02-03T08:07:25.065Z,89.79
2023-02-03T08:11:26.801Z,89.57
2023-02-03T08:15:28.585Z,89.72
2023-02-03T08:19:30.366Z,89.84
2023-02-03T08:23:32.282Z,89.79
2023-02-03T08:27:34.358Z,89.64
2023-02-03T08:31:36.108Z,89.63
2023-02-03T08:35:38.319Z,89.96
2023-02-03T08:39:40.202Z,89.90
2023-02-03T08:43:42.223Z,89.99
2023-02-03T08:47:43.977Z,89.65
2023-02-03T08:51:47.807Z,89.63
2023-02-03T08:55:49.569Z,89.45
2023-02-03T08:59:51.376Z,89.56
2023-02-03T09:03:53.164Z,89.10
2023-02-03T09:07:55.004Z,89.40
2023-02-03T09:12:02.574Z,89.48
2023-02-03T09:16:06.434Z,89.12
2023-02-03T09:20:09.192Z,89.19
2023-02-03T09:24:10.972Z,88.87
2023-02-03T09:28:12.772Z,89.22
2023-02-03T09:32:15.753Z,88.71
2023-02-03T09:36:17.646Z,88.94
2023-02-03T09:40:24.889Z,88.95
2023-02-03T09:44:35.835Z,88.75
2023-02-03T09:48:47.742Z,88.45
2023-02-03T09:52:50.990Z,88.40
2023-02-03T09:56:55.834Z,88.18
2023-02-03T10:01:01.448Z,88.58
2023-02-03T10:05:18.170Z,88.07
2023-02-03T10:09:33.546Z,87.98
2023-02-03T10:14:01.644Z,88.17
2023-02-03T10:18:13.216Z,88.17
2023-02-03T10:22:22.087Z,87.86
2023-02-03T10:26:27.941Z,88.05
2023-02-03T10:30:45.570Z,87.72
2023-02-03T10:34:48.253Z,87.79
2023-02-03T10:39:27.564Z,87.53
2023-02-03T10:43:50.264Z,87.78
2023-02-03T10:47:55.212Z,87.53
2023-02-03T10:52:02.451Z,87.31
2023-02-03T10:56:11.601Z,87.47
2023-02-03T11:00:24.382Z,87.20
2023-02-03T11:04:32.373Z,86.94
2023-02-03T11:08:36.479Z,87.28
2023-02-03T11:12:38.220Z,87.02
2023-02-03T11:16:42.687Z,86.84
2023-02-03T11:20:45.886Z,86.97
2023-02-03T11:24:47.647Z,86.85
2023-02-03T11:28:51.891Z,86.85
2023-02-03T11:32:54.002Z,86.76
2023-02-03T11:36:56.438Z,87.12
2023-02-03T11:41:01.939Z,87.26
2023-02-03T11:45:42.052Z,86.99
2023-02-03T11:50:03.165Z,87.16
2023-02-03T11:54:22.902Z,86.77
2023-02-03T11:58:42.156Z,87.25
2023-02-03T12:02:51.562Z,86.76
2023-02-03T12:06:56.203Z,86.77
2023-02-03T12:11:13.018Z,86.98
2023-02-03T12:15:25.110Z,87.23
2023-02-03T12:19:59.361Z,87.16
2023-02-03T12:24:35.923Z,86.94
2023-02-03T12:29:04.842Z,86.69
2023-02-03T12:33:18.716Z,86.74
2023-02-03T12:37:42.437Z,86.71
2023-02-03T12:41:52.385Z,86.87
2023-02-03T12:46:01.217Z,86.62
2023-02-03T12:50:17.164Z,86.81
2023-02-03T12:54:37.325Z,86.75
2023-02-03T12:58:51.763Z,87.01
2023-02-03T13:03:19.554Z,86.94
2023-02-03T13:07:27.666Z,87.27
2023-02-03T13:11:37.080Z,87.86
2023-02-03T13:15:48.826Z,88.83
2023-02-03T13:19:56.731Z,89.07
2023-02-03T13:23:58.831Z,89.52
2023-02-03T13:28:22.181Z,89.99
2023-02-03T13:32:55.621Z,90.50
2023-02-03T13:37:03.674Z,90.61
2023-02-03T13:41:08.346Z,90.48
2023-02-03T13:45:30.415Z,90.77
2023-02-03T13:49:36.122Z,91.13
2023-02-03T13:53:40.601Z,91.33
2023-02-03T13:57:42.540Z,91.30
2023-02-03T14:01:44.657Z,91.90
2023-02-03T14:05:52.342Z,91.64
2023-02-03T14:10:12.673Z,91.95
2023-02-03T14:14:14.361Z,91.78
2023-02-03T14:18:22.371Z,91.80
2023-02-03T14:22:24.320Z,91.80
2023-02-03T14:26:41.283Z,91.93
2023-02-03T14:31:10.516Z,92.17
2023-02-03T14:35:29.326Z,92.41
2023-02-03T14:39:39.426Z,91.96
2023-02-03T14:44:14.900Z,92.19
2023-02-03T14:48:23.318Z,92.14
2023-02-03T14:52:53.962Z,92.44
2023-02-03T14:57:18.445Z,92.78
2023-02-03T15:01:24.288Z,92.58
2023-02-03T15:05:29.918Z,92.46
2023-02-03T15:09:38.743Z,92.97
2023-02-03T15:13:40.517Z,92.61
2023-02-03T15:17:42.344Z,92.88
2023-02-03T15:21:44.619Z,92.72
2023-02-03T15:25:46.840Z,93.01
2023-02-03T15:29:48.916Z,93.34
2023-02-03T15:33:54.338Z,93.04
2023-02-03T15:38:03.394Z,92.84
2023-02-03T15:42:11.911Z,92.97
2023-02-03T15:46:38.135Z,93.25
2023-02-03T15:50:46.183Z,93.26
2023-02-03T15:54:53.816Z,92.98
2023-02-03T15:58:58.858Z,93.00
2023-02-03T16:03:07.639Z,93.08
2023-02-03T16:07:21.342Z,93.07
2023-02-03T16:11:30.234Z,93.20
2023-02-03T16:15:37.043Z,93.58
2023-02-03T16:19:41.322Z,93.57
2023-02-03T16:23:49.801Z,93.37
2023-02-03T16:28:31.834Z,94.00
2023-02-03T16:32:52.431Z,93.82
2023-02-03T16:37:13.124Z,94.10
2023-02-03T16:41:36.139Z,94.00
2023-02-03T16:45:56.707Z,94.12
2023-02-03T16:50:19.892Z,94.10
2023-02-03T16:54:28.288Z,93.97
2023-02-03T16:58:31.099Z,93.71
2023-02-03T17:02:32.912Z,93.59
2023-02-03T17:06:38.471Z,93.46
2023-02-03T17:10:42.198Z,93.35
2023-02-03T17:14:43.931Z,93.15
2023-02-03T17:18:46.608Z,93.04
2023-02-03T17:22:51.731Z,92.64
2023-02-03T17:26:54.842Z,92.45
2023-02-03T17:31:07.549Z,92.18
2023-02-03T17:35:09.328Z,92.19
2023-02-03T17:56:21.796Z,92.25
2023-02-03T18:00:23.648Z,92.09
2023-02-03T18:04:26.231Z,92.39
2023-02-03T18:08:28.152Z,92.68
2023-02-03T18:12:30.167Z,93.22
2023-02-03T18:16:35.840Z,93.21
2023-02-03T18:20:37.599Z,93.33
2023-02-03T18:24:39.917Z,93.16
2023-02-03T18:28:41.850Z,93.17
2023-02-03T18:32:44.111Z,93.56
2023-02-03T18:36:45.932Z,93.29
2023-02-03T18:40:47.696Z,93.50
2023-02-03T18:44:49.513Z,93.63
2023-02-03T18:48:51.333Z,93.53
2023-02-03T18:52:54.564Z,93.29
2023-02-03T18:56:59.120Z,93.66
2023-02-03T19:01:00.960Z,93.27
2023-02-03T19:05:02.855Z,93.41
2023-02-03T19:09:05.999Z,93.20
2023-02-03T19:13:07.731Z,93.20
2023-02-03T19:17:10.420Z,93.19
2023-02-03T19:21:13.235Z,93.62
2023-02-03T19:25:15.064Z,93.35
2023-02-03T19:29:16.990Z,93.51
2023-02-03T19:33:18.744Z,93.43
2023-02-03T19:37:20.504Z,93.46
2023-02-03T19:41:23.125Z,93.48
2023-02-03T19:45:24.954Z,93.56
2023-02-03T19:49:28.735Z,93.16
2023-02-03T19:53:30.537Z,93.54
2023-02-03T19:57:32.449Z,93.40
2023-02-03T20:01:34.832Z,93.45
2023-02-03T20:05:36.643Z,93.61
2023-02-03T20:09:38.410Z,93.38
2023-02-03T20:13:42.289Z,93.26
2023-02-03T20:17:44.245Z,92.66
2023-02-03T20:21:46.579Z,92.48
2023-02-03T20:25:50.327Z,92.07
2023-02-03T20:29:52.136Z,91.83
2023-02-03T20:33:53.929Z,92.06
2023-02-03T20:37:55.687Z,92.34
2023-02-03T20:41:57.506Z,92.27
2023-02-03T20:45:59.250Z,92.75
2023-02-03T20:50:01.014Z,92.49
2023-02-03T20:54:12.879Z,92.44
2023-02-03T20:58:25.702Z,92.87
2023-02-03T21:02:47.596Z,92.52
2023-02-03T21:06:49.310Z,92.94
2023-02-03T21:10:51.142Z,92.78
2023-02-03T21:14:55.106Z,92.81
2023-02-03T21:19:00.576Z,92.98
2023-02-03T21:23:02.456Z,93.28
2023-02-03T21:27:23.656Z,93.08
2023-02-03T21:31:34.395Z,93.41
2023-02-03T21:35:37.444Z,93.37
2023-02-03T21:39:39.198Z,93.85
2023-02-03T21:43:41.190Z,93.85
2023-02-03T21:47:44.630Z,93.95
2023-02-03T21:51:46.477Z,94.12
2023-02-03T21:55:49.290Z,94.16
2023-02-03T21:59:51.032Z,94.23
2023-02-03T22:03:55.294Z,94.57
2023-02-03T22:07:57.081Z,94.28
2023-02-03T22:12:01.053Z,94.50
2023-02-03T22:16:04.063Z,94.57
2023-02-03T22:20:06.255Z,94.69
2023-02-03T22:24:08.081Z,94.86
2023-02-03T22:28:09.999Z,94.76
2023-02-03T22:32:12.012Z,94.81
2023-02-03T22:36:14.748Z,94.77
2023-02-03T22:40:17.184Z,94.75
2023-02-03T22:44:19.203Z,94.94
2023-02-03T22:48:21.604Z,94.87
2023-02-03T22:52:23.355Z,95.29
2023-02-03T22:56:25.139Z,95.00
2023-02-03T23:00:27.515Z,95.63
2023-02-03T23:04:29.257Z,95.16
2023-02-03T23:08:30.994Z,95.13
2023-02-03T23:12:32.949Z,95.54
2023-02-03T23:16:34.656Z,95.94
2023-02-03T23:20:36.388Z,95.63
2023-02-03T23:24:38.091Z,95.47
2023-02-03T23:28:39.860Z,96.02
2023-02-03T23:32:41.778Z,95.68
2023-02-03T23:36:43.494Z,95.68
2023-02-03T23:40:45.322Z,96.07
2023-02-03T23:44:47.118Z,96.02
2023-02-03T23:48:48.979Z,95.90
2023-02-03T23:52:50.755Z,95.84
2023-02-03T23:56:52.929Z,96.09
